Time;durP1;ratioP1;P1;durP2;ratioP2;P2;SDS_P1;SDS_P2;PMS_P1;PMS_P2;Temp;Humidity;BMP_temperature;BMP_pressure;BME280_temperature;BME280_humidity;BME280_pressure;Samples;Min_cycle;Max_cycle;Signal;HPM_P1;HPM_P2
2022/03/28 00:02:44;;;;;;;;;34.50;26.00;;;;;;;;2;261076004;261076004;-82
2022/03/28 00:11:45;;;;;;;;;31.50;30.50;;;;;;;;2;261075524;261075524;-82
2022/03/28 00:20:00;;;;;;;;;24.50;24.50;;;;;;;;2;261078772;261078772;-82
2022/03/28 00:29:01;;;;;;;;;29.00;25.00;;;;;;;;2;261074696;261074696;-82
2022/03/28 00:37:16;;;;;;;;;37.00;34.00;;;;;;;;2;261077754;261077754;-82
2022/03/28 00:46:17;;;;;;;;;44.50;29.50;;;;;;;;2;261076436;261076436;-82
2022/03/28 00:54:32;;;;;;;;;28.00;16.50;;;;;;;;2;261079801;261079801;-82
2022/03/28 01:03:33;;;;;;;;;26.50;26.00;;;;;;;;2;261075978;261075978;-83
2022/03/28 01:11:49;;;;;;;;;22.00;22.00;;;;;;;;2;261075578;261075578;-82
2022/03/28 01:20:50;;;;;;;;;21.50;21.50;;;;;;;;2;261075772;261075772;-82
2022/03/28 01:29:05;;;;;;;;;37.50;28.50;;;;;;;;2;261079836;261079836;-82
2022/03/28 01:38:07;;;;;;;;;35.50;24.00;;;;;;;;2;261077057;261077057;-82
2022/03/28 01:46:23;;;;;;;;;46.50;38.00;;;;;;;;2;261076216;261076216;-82
2022/03/28 01:55:23;;;;;;;;;20.00;20.00;;;;;;;;2;261075059;261075059;-82
2022/03/28 02:03:39;;;;;;;;;32.00;29.00;;;;;;;;2;261076598;261076598;-82
2022/03/28 02:12:40;;;;;;;;;35.00;27.00;;;;;;;;2;261075168;261075168;-82
2022/03/28 02:20:55;;;;;;;;;42.50;27.00;;;;;;;;2;261076337;261076337;-82
2022/03/28 02:29:55;;;;;;;;;40.00;28.50;;;;;;;;2;261079494;261079494;-82
2022/03/28 02:38:11;;;;;;;;;42.50;27.50;;;;;;;;2;261078068;261078068;-82
2022/03/28 02:47:11;;;;;;;;;37.00;34.00;;;;;;;;2;261076658;261076658;-82
2022/03/28 02:55:27;;;;;;;;;48.00;29.50;;;;;;;;2;261077681;261077681;-82
2022/03/28 03:04:27;;;;;;;;;58.50;38.00;;;;;;;;2;261074320;261074320;-82
2022/03/28 03:12:42;;;;;;;;;29.50;29.00;;;;;;;;2;261077056;261077056;-82
2022/03/28 03:21:43;;;;;;;;;43.50;37.00;;;;;;;;2;261074997;261074997;-82
2022/03/28 03:29:59;;;;;;;;;46.50;40.00;;;;;;;;2;261076290;261076290;-82
2022/03/28 03:38:59;;;;;;;;;53.50;33.00;;;;;;;;2;261075591;261075591;-82
2022/03/28 03:47:14;;;;;;;;;52.00;35.50;;;;;;;;2;261074020;261074020;-82
2022/03/28 03:56:15;;;;;;;;;41.00;29.50;;;;;;;;2;261076047;261076047;-82
2022/03/28 04:04:30;;;;;;;;;29.00;27.50;;;;;;;;2;261075180;261075180;-81
2022/03/28 04:13:31;;;;;;;;;46.00;37.50;;;;;;;;2;261076697;261076697;-81
2022/03/28 04:21:48;;;;;;;;;47.50;38.00;;;;;;;;2;261075753;261075753;-82
2022/03/28 04:30:50;;;;;;;;;46.50;38.50;;;;;;;;2;261076774;261076774;-87
2022/03/28 04:39:06;;;;;;;;;49.50;41.00;;;;;;;;2;261076125;261076125;-78
2022/03/28 04:48:06;;;;;;;;;38.00;35.00;;;;;;;;2;261076089;261076089;-77
2022/03/28 04:56:22;;;;;;;;;51.00;34.50;;;;;;;;2;261075322;261075322;-79
2022/03/28 05:05:22;;;;;;;;;47.00;37.50;;;;;;;;2;261078824;261078824;-80
2022/03/28 05:13:38;;;;;;;;;47.00;33.50;;;;;;;;2;261075718;261075718;-80
2022/03/28 05:22:38;;;;;;;;;56.00;43.50;;;;;;;;2;261076653;261076653;-80
2022/03/28 05:30:54;;;;;;;;;50.00;41.50;;;;;;;;2;261076475;261076475;-80
2022/03/28 05:39:54;;;;;;;;;64.00;38.00;;;;;;;;2;261077552;261077552;-80
2022/03/28 05:48:10;;;;;;;;;51.00;35.00;;;;;;;;2;261079005;261079005;-80
2022/03/28 05:57:10;;;;;;;;;57.00;32.00;;;;;;;;2;261083468;261083468;-80
2022/03/28 06:05:25;;;;;;;;;55.00;37.50;;;;;;;;2;261081801;261081801;-80
2022/03/28 06:14:26;;;;;;;;;42.50;35.00;;;;;;;;2;261077137;261077137;-81
2022/03/28 06:22:41;;;;;;;;;39.50;35.50;;;;;;;;2;261078201;261078201;-81
2022/03/28 06:31:41;;;;;;;;;51.00;41.50;;;;;;;;2;261079952;261079952;-81
2022/03/28 06:39:57;;;;;;;;;37.00;34.00;;;;;;;;2;261075367;261075367;-80
2022/03/28 06:48:57;;;;;;;;;56.00;43.00;;;;;;;;2;261082065;261082065;-84
2022/03/28 06:57:13;;;;;;;;;64.50;47.50;;;;;;;;2;261080611;261080611;-83
2022/03/28 07:06:13;;;;;;;;;49.00;35.00;;;;;;;;2;261080454;261080454;-84
2022/03/28 07:14:32;;;;;;;;;45.50;37.50;;;;;;;;2;261080042;261080042;-84
2022/03/28 07:23:32;;;;;;;;;54.00;43.00;;;;;;;;2;261093854;261093854;-85
2022/03/28 07:31:48;;;;;;;;;55.50;39.50;;;;;;;;2;261092290;261092290;-85
2022/03/28 07:40:49;;;;;;;;;53.50;35.50;;;;;;;;2;261093141;261093141;-85
2022/03/28 07:49:04;;;;;;;;;45.50;38.00;;;;;;;;2;261092723;261092723;-86
2022/03/28 07:58:06;;;;;;;;;57.50;45.50;;;;;;;;2;261097181;261097181;-85
2022/03/28 08:06:24;;;;;;;;;45.00;38.50;;;;;;;;2;261092901;261092901;-86
2022/03/28 08:15:24;;;;;;;;;44.00;38.50;;;;;;;;2;261089897;261089897;-85
2022/03/28 08:23:40;;;;;;;;;59.00;43.50;;;;;;;;2;261093645;261093645;-86
2022/03/28 08:47:09;;;;;;;;;56.00;45.00;;;;;;;;176354;27;261096011;-86
2022/03/28 08:56:09;;;;;;;;;38.00;34.50;;;;;;;;2;261098393;261098393;-86
2022/03/28 09:04:25;;;;;;;;;49.00;41.00;;;;;;;;2;261104337;261104337;-86
2022/03/28 09:13:25;;;;;;;;;45.00;39.50;;;;;;;;2;261094362;261094362;-86
2022/03/28 09:21:49;;;;;;;;;54.50;36.50;;;;;;;;2;261092657;261092657;-86
2022/03/28 09:30:50;;;;;;;;;61.00;45.50;;;;;;;;2;261090822;261090822;-86
2022/03/28 09:39:08;;;;;;;;;44.00;39.00;;;;;;;;2;261096449;261096449;-86
2022/03/28 09:48:11;;;;;;;;;42.50;37.50;;;;;;;;2;261093488;261093488;-86
2022/03/28 09:56:27;;;;;;;;;52.50;38.50;;;;;;;;2;261096646;261096646;-86
2022/03/28 10:05:28;;;;;;;;;45.50;38.00;;;;;;;;2;261096278;261096278;-86
2022/03/28 10:13:44;;;;;;;;;49.00;35.50;;;;;;;;2;261085630;261085630;-86
2022/03/28 10:22:48;;;;;;;;;51.50;38.00;;;;;;;;2;261086127;261086127;-83
2022/03/28 10:31:29;;;;;;;;;;;;;;;;;;;;;
2022/03/28 10:40:31;;;;;;;;;35.00;33.00;;;;;;;;2;261112840;261112840;-86
2022/03/28 10:48:48;;;;;;;;;31.50;30.00;;;;;;;;2;261082948;261082948;-84
2022/03/28 10:57:49;;;;;;;;;50.00;34.50;;;;;;;;2;261096219;261096219;-84
2022/03/28 11:06:05;;;;;;;;;27.50;27.00;;;;;;;;2;261091137;261091137;-84
2022/03/28 11:15:16;;;;;;;;;57.50;40.00;;;;;;;;2;261094095;261094095;-83
2022/03/28 11:23:37;;;;;;;;;52.50;21.00;;;;;;;;2;261091626;261091626;-84
2022/03/28 11:32:38;;;;;;;;;42.00;37.00;;;;;;;;2;261095153;261095153;-83
2022/03/28 11:40:54;;;;;;;;;26.50;26.00;;;;;;;;2;261092200;261092200;-84
2022/03/28 11:50:00;;;;;;;;;33.50;31.50;;;;;;;;2;261093840;261093840;-85
2022/03/28 11:58:16;;;;;;;;;23.50;21.50;;;;;;;;2;261089597;261089597;-84
2022/03/28 12:07:17;;;;;;;;;56.00;29.00;;;;;;;;2;261093619;261093619;-84
2022/03/28 12:15:34;;;;;;;;;38.00;26.50;;;;;;;;2;261097538;261097538;-84
2022/03/28 12:24:35;;;;;;;;;29.00;28.50;;;;;;;;2;261090933;261090933;-84
2022/03/28 12:32:50;;;;;;;;;30.50;19.00;;;;;;;;2;261088410;261088410;-84
2022/03/28 12:41:56;;;;;;;;;28.50;18.50;;;;;;;;2;261087268;261087268;-84
2022/03/28 12:50:11;;;;;;;;;24.50;23.00;;;;;;;;2;261095350;261095350;-84
2022/03/28 12:59:20;;;;;;;;;19.00;19.00;;;;;;;;2;261089689;261089689;-84
2022/03/28 13:07:38;;;;;;;;;25.00;25.00;;;;;;;;2;261091843;261091843;-84
2022/03/28 13:16:39;;;;;;;;;17.50;17.50;;;;;;;;2;261093527;261093527;-83
2022/03/28 13:25:10;;;;;;;;;20.00;17.00;;;;;;;;2;261095068;261095068;-83
2022/03/28 13:34:11;;;;;;;;;20.50;15.50;;;;;;;;2;261093556;261093556;-82
2022/03/28 13:42:26;;;;;;;;;25.00;16.00;;;;;;;;2;261086859;261086859;-82
2022/03/28 13:51:27;;;;;;;;;10.00;10.00;;;;;;;;2;261089899;261089899;-83
2022/03/28 13:59:43;;;;;;;;;26.00;26.00;;;;;;;;2;261091033;261091033;-84
2022/03/28 14:08:47;;;;;;;;;17.00;17.00;;;;;;;;2;261078384;261078384;-85
2022/03/28 14:17:03;;;;;;;;;19.50;16.00;;;;;;;;2;261074770;261074770;-84
2022/03/28 14:26:03;;;;;;;;;15.00;15.00;;;;;;;;2;261074474;261074474;-85
2022/03/28 14:44:38;;;;;;;;;24.00;24.00;;;;;;;;2;261081312;261081312;-81
2022/03/28 14:53:06;;;;;;;;;26.50;11.50;;;;;;;;2;261076734;261076734;-88
2022/03/28 15:02:06;;;;;;;;;31.50;17.50;;;;;;;;2;261076026;261076026;-83
2022/03/28 15:10:22;;;;;;;;;24.50;12.50;;;;;;;;2;261077322;261077322;-85
2022/03/28 15:19:22;;;;;;;;;36.00;19.50;;;;;;;;2;261076599;261076599;-83
2022/03/28 15:27:38;;;;;;;;;18.50;18.50;;;;;;;;2;261074580;261074580;-82
2022/03/28 15:36:40;;;;;;;;;17.00;17.00;;;;;;;;2;261074543;261074543;-84
2022/03/28 15:44:56;;;;;;;;;14.00;14.00;;;;;;;;2;261077330;261077330;-83
2022/03/28 15:53:56;;;;;;;;;17.00;17.00;;;;;;;;2;261076859;261076859;-84
2022/03/28 16:02:12;;;;;;;;;25.00;17.50;;;;;;;;2;261078441;261078441;-84
2022/03/28 16:11:13;;;;;;;;;9.50;9.50;;;;;;;;2;261078408;261078408;-85
2022/03/28 16:19:28;;;;;;;;;20.00;20.00;;;;;;;;2;261076991;261076991;-85
2022/03/28 16:28:29;;;;;;;;;31.50;20.00;;;;;;;;2;261076593;261076593;-85
2022/03/28 16:36:45;;;;;;;;;15.00;15.00;;;;;;;;2;261075200;261075200;-84
2022/03/28 16:45:45;;;;;;;;;24.50;12.50;;;;;;;;2;261078554;261078554;-85
2022/03/28 16:54:02;;;;;;;;;16.50;16.50;;;;;;;;2;261077258;261077258;-86
2022/03/28 17:03:03;;;;;;;;;33.00;20.00;;;;;;;;2;261078659;261078659;-84
2022/03/28 17:11:18;;;;;;;;;29.00;25.50;;;;;;;;2;261078235;261078235;-85
2022/03/28 17:20:18;;;;;;;;;20.00;20.00;;;;;;;;2;261080330;261080330;-85
2022/03/28 17:28:34;;;;;;;;;19.50;19.50;;;;;;;;2;261077018;261077018;-84
2022/03/28 17:37:35;;;;;;;;;28.00;19.00;;;;;;;;2;261077699;261077699;-86
2022/03/28 17:45:52;;;;;;;;;35.00;18.00;;;;;;;;2;261079292;261079292;-84
2022/03/28 17:54:53;;;;;;;;;24.00;24.00;;;;;;;;2;261078000;261078000;-85
2022/03/28 18:03:08;;;;;;;;;17.00;13.50;;;;;;;;2;261079504;261079504;-85
2022/03/28 18:12:09;;;;;;;;;30.50;17.00;;;;;;;;2;261079463;261079463;-85
2022/03/28 18:20:25;;;;;;;;;24.00;21.00;;;;;;;;2;261075846;261075846;-85
2022/03/28 18:29:26;;;;;;;;;20.00;14.50;;;;;;;;2;261078523;261078523;-82
2022/03/28 18:37:44;;;;;;;;;21.00;21.00;;;;;;;;2;261078296;261078296;-84
2022/03/28 18:46:44;;;;;;;;;36.00;24.50;;;;;;;;2;261078669;261078669;-84
2022/03/28 18:55:00;;;;;;;;;28.50;17.50;;;;;;;;2;261081730;261081730;-84
2022/03/28 19:04:00;;;;;;;;;45.00;17.50;;;;;;;;2;261077631;261077631;-86
2022/03/28 19:12:16;;;;;;;;;18.00;18.00;;;;;;;;2;261075605;261075605;-84
2022/03/28 19:21:16;;;;;;;;;22.00;18.00;;;;;;;;2;261080864;261080864;-84
2022/03/28 19:29:32;;;;;;;;;22.50;22.50;;;;;;;;2;261077545;261077545;-85
2022/03/28 19:38:33;;;;;;;;;15.00;15.00;;;;;;;;2;261078501;261078501;-84
2022/03/28 19:46:49;;;;;;;;;19.00;15.00;;;;;;;;2;261077812;261077812;-83
2022/03/28 19:55:49;;;;;;;;;18.50;18.50;;;;;;;;2;261075440;261075440;-83
2022/03/28 20:04:05;;;;;;;;;20.50;20.50;;;;;;;;2;261080408;261080408;-84
2022/03/28 20:13:06;;;;;;;;;28.00;28.00;;;;;;;;2;261077045;261077045;-84
2022/03/28 20:21:26;;;;;;;;;35.50;33.00;;;;;;;;2;261077959;261077959;-83
2022/03/28 20:30:27;;;;;;;;;19.50;19.50;;;;;;;;2;261079851;261079851;-82
2022/03/28 20:38:44;;;;;;;;;21.50;21.50;;;;;;;;2;261096679;261096679;-84
2022/03/28 20:47:44;;;;;;;;;11.50;5.00;;;;;;;;2;261085643;261085643;-84
2022/03/28 20:56:01;;;;;;;;;15.00;15.00;;;;;;;;2;261093001;261093001;-83
2022/03/28 21:05:02;;;;;;;;;27.00;14.50;;;;;;;;2;261099102;261099102;-84
2022/03/28 21:13:17;;;;;;;;;38.50;21.00;;;;;;;;2;261091715;261091715;-84
2022/03/28 21:22:20;;;;;;;;;18.50;18.50;;;;;;;;2;261094018;261094018;-83
2022/03/28 21:30:36;;;;;;;;;25.00;25.00;;;;;;;;2;261089797;261089797;-82
2022/03/28 21:39:37;;;;;;;;;21.00;18.50;;;;;;;;2;261077094;261077094;-84
2022/03/28 21:47:52;;;;;;;;;31.00;20.00;;;;;;;;2;261075232;261075232;-83
2022/03/28 21:56:53;;;;;;;;;21.50;20.00;;;;;;;;2;261078776;261078776;-83
2022/03/28 22:05:08;;;;;;;;;23.00;23.00;;;;;;;;2;261079595;261079595;-83
2022/03/28 22:14:10;;;;;;;;;29.00;25.00;;;;;;;;2;261077059;261077059;-83
2022/03/28 22:22:25;;;;;;;;;45.50;32.00;;;;;;;;2;261080218;261080218;-84
2022/03/28 22:31:26;;;;;;;;;31.00;30.50;;;;;;;;2;261084221;261084221;-83
2022/03/28 22:39:41;;;;;;;;;40.50;25.50;;;;;;;;2;261078576;261078576;-83
2022/03/28 22:48:41;;;;;;;;;20.00;20.00;;;;;;;;2;261078329;261078329;-83
2022/03/28 22:56:57;;;;;;;;;35.00;31.50;;;;;;;;2;261074591;261074591;-84
2022/03/28 23:05:57;;;;;;;;;28.50;24.00;;;;;;;;2;261080556;261080556;-84
2022/03/28 23:14:13;;;;;;;;;22.00;22.00;;;;;;;;2;261081003;261081003;-84
2022/03/28 23:23:13;;;;;;;;;30.50;22.00;;;;;;;;2;261078333;261078333;-84
2022/03/28 23:31:29;;;;;;;;;22.00;22.00;;;;;;;;2;261079063;261079063;-84
2022/03/28 23:40:29;;;;;;;;;24.00;20.00;;;;;;;;2;261078229;261078229;-84
2022/03/28 23:48:44;;;;;;;;;31.00;30.00;;;;;;;;2;261077289;261077289;-84
2022/03/28 23:57:45;;;;;;;;;21.00;18.00;;;;;;;;2;261076940;261076940;-84
